2OI7 weather

Worthington Industries Heliport
Columbus, Ohio, United States

Public forecast

Using degrees Fahrenheit for public forecast. Weather courtesy of forecast.io.

METAR (pilot weather report)

Closest report is The Ohio State University Airport - Don Scott Field, 4.6 nm (8.6 km) WSW. Retrieved 2019/05/21 11:53 UTC (39 minutes ago):

KOSU 211153Z 06009KT 10SM CLR 10/05 A3015 RMK AO2 SLP210 T01000050 10100 20078 53015

TAF (pilot weather forecast)

Closest forecast is John Glenn Columbus International Airport, 8.0 nm (14.8 km) SSE. Retrieved 2019/05/21 12:30 UTC (2 minutes ago):

TAF KCMH 211129Z 2112/2212 05006KT P6SM FEW030 BKN150 FM211500 07008KT P6SM BKN100 FM220300 09009KT P6SM FEW100 FM221100 11009KT P6SM SCT070 BKN250